sensor_id;sensor_type;location;lat;lon;timestamp;temperature;humidity
14053;DHT22;7101;51.600;7.310;2023-04-15T00:00:21;7.40;1.00
14053;DHT22;7101;51.600;7.310;2023-04-15T00:02:48;7.30;67.60
14053;DHT22;7101;51.600;7.310;2023-04-15T00:05:15;7.30;1.00
14053;DHT22;7101;51.600;7.310;2023-04-15T00:07:42;7.20;1.00
14053;DHT22;7101;51.600;7.310;2023-04-15T00:10:12;7.20;1.00
14053;DHT22;7101;51.600;7.310;2023-04-15T00:12:39;7.20;1.00
14053;DHT22;7101;51.600;7.310;2023-04-15T00:15:09;7.20;1.00
14053;DHT22;7101;51.600;7.310;2023-04-15T00:17:38;7.10;1.00
14053;DHT22;7101;51.600;7.310;2023-04-15T00:20:06;7.20;1.00
14053;DHT22;7101;51.600;7.310;2023-04-15T00:22:33;7.10;1.00
14053;DHT22;7101;51.600;7.310;2023-04-15T00:25:00;7.10;1.00
14053;DHT22;7101;51.600;7.310;2023-04-15T00:27:26;7.00;1.00
14053;DHT22;7101;51.600;7.310;2023-04-15T00:29:55;6.90;1.00
14053;DHT22;7101;51.600;7.310;2023-04-15T00:32:23;7.00;1.00
14053;DHT22;7101;51.600;7.310;2023-04-15T00:34:49;6.90;1.00
14053;DHT22;7101;51.600;7.310;2023-04-15T00:37:17;6.80;1.00
14053;DHT22;7101;51.600;7.310;2023-04-15T00:39:43;6.70;1.00
14053;DHT22;7101;51.600;7.310;2023-04-15T00:42:11;6.70;1.00
14053;DHT22;7101;51.600;7.310;2023-04-15T00:44:39;6.70;1.00
14053;DHT22;7101;51.600;7.310;2023-04-15T00:47:06;6.70;1.00
14053;DHT22;7101;51.600;7.310;2023-04-15T00:49:34;6.70;1.00
14053;DHT22;7101;51.600;7.310;2023-04-15T00:52:01;6.60;1.00
14053;DHT22;7101;51.600;7.310;2023-04-15T00:54:28;6.60;1.00
14053;DHT22;7101;51.600;7.310;2023-04-15T00:56:55;6.80;1.00
14053;DHT22;7101;51.600;7.310;2023-04-15T00:59:26;6.70;1.00
14053;DHT22;7101;51.600;7.310;2023-04-15T01:01:56;6.70;1.00
14053;DHT22;7101;51.600;7.310;2023-04-15T01:04:24;6.60;1.00
14053;DHT22;7101;51.600;7.310;2023-04-15T01:06:54;6.40;3.60
14053;DHT22;7101;51.600;7.310;2023-04-15T01:09:28;6.40;48.10
14053;DHT22;7101;51.600;7.310;2023-04-15T01:11:55;6.30;64.00
14053;DHT22;7101;51.600;7.310;2023-04-15T01:14:25;6.20;84.90
14053;DHT22;7101;51.600;7.310;2023-04-15T01:16:52;6.20;55.50
14053;DHT22;7101;51.600;7.310;2023-04-15T01:19:21;6.30;63.70
14053;DHT22;7101;51.600;7.310;2023-04-15T01:21:56;6.20;47.30
14053;DHT22;7101;51.600;7.310;2023-04-15T01:24:27;6.00;38.10
14053;DHT22;7101;51.600;7.310;2023-04-15T01:26:59;5.90;48.10
14053;DHT22;7101;51.600;7.310;2023-04-15T01:29:27;5.80;53.70
14053;DHT22;7101;51.600;7.310;2023-04-15T01:31:54;5.70;31.00
14053;DHT22;7101;51.600;7.310;2023-04-15T01:34:22;5.60;54.30
14053;DHT22;7101;51.600;7.310;2023-04-15T01:36:49;5.50;43.00
14053;DHT22;7101;51.600;7.310;2023-04-15T01:39:16;5.50;52.90
14053;DHT22;7101;51.600;7.310;2023-04-15T01:41:43;5.40;94.40
14053;DHT22;7101;51.600;7.310;2023-04-15T01:44:12;5.30;99.90
14053;DHT22;7101;51.600;7.310;2023-04-15T01:46:38;5.30;90.80
14053;DHT22;7101;51.600;7.310;2023-04-15T01:49:07;5.20;82.60
14053;DHT22;7101;51.600;7.310;2023-04-15T01:51:34;5.10;99.90
14053;DHT22;7101;51.600;7.310;2023-04-15T01:54:01;5.10;99.90
14053;DHT22;7101;51.600;7.310;2023-04-15T01:56:27;5.20;99.90
14053;DHT22;7101;51.600;7.310;2023-04-15T01:58:54;5.10;99.90
14053;DHT22;7101;51.600;7.310;2023-04-15T02:01:22;5.10;99.90
14053;DHT22;7101;51.600;7.310;2023-04-15T02:03:49;5.10;99.90
14053;DHT22;7101;51.600;7.310;2023-04-15T02:06:16;5.10;99.90
14053;DHT22;7101;51.600;7.310;2023-04-15T02:08:43;5.10;99.90
14053;DHT22;7101;51.600;7.310;2023-04-15T02:11:10;5.00;99.90
14053;DHT22;7101;51.600;7.310;2023-04-15T02:13:37;5.00;99.90
14053;DHT22;7101;51.600;7.310;2023-04-15T02:16:15;5.00;99.90
14053;DHT22;7101;51.600;7.310;2023-04-15T02:18:45;5.00;99.90
14053;DHT22;7101;51.600;7.310;2023-04-15T02:21:12;4.90;99.90
14053;DHT22;7101;51.600;7.310;2023-04-15T02:23:39;4.70;99.90
14053;DHT22;7101;51.600;7.310;2023-04-15T02:26:06;4.80;99.90
14053;DHT22;7101;51.600;7.310;2023-04-15T02:28:33;4.80;99.90
14053;DHT22;7101;51.600;7.310;2023-04-15T02:31:07;4.70;99.90
14053;DHT22;7101;51.600;7.310;2023-04-15T02:33:35;4.70;99.90
14053;DHT22;7101;51.600;7.310;2023-04-15T02:36:06;4.60;99.90
14053;DHT22;7101;51.600;7.310;2023-04-15T02:38:35;4.60;99.90
14053;DHT22;7101;51.600;7.310;2023-04-15T02:41:02;4.60;99.90
14053;DHT22;7101;51.600;7.310;2023-04-15T02:43:29;4.40;99.90
14053;DHT22;7101;51.600;7.310;2023-04-15T02:45:56;4.40;99.90
14053;DHT22;7101;51.600;7.310;2023-04-15T02:48:24;4.40;99.90
14053;DHT22;7101;51.600;7.310;2023-04-15T02:50:51;4.50;99.90
14053;DHT22;7101;51.600;7.310;2023-04-15T02:53:20;4.40;99.90
14053;DHT22;7101;51.600;7.310;2023-04-15T02:55:47;4.40;99.90
14053;DHT22;7101;51.600;7.310;2023-04-15T02:58:14;4.50;99.90
14053;DHT22;7101;51.600;7.310;2023-04-15T03:00:43;4.50;99.90
14053;DHT22;7101;51.600;7.310;2023-04-15T03:03:10;4.50;99.90
14053;DHT22;7101;51.600;7.310;2023-04-15T03:05:39;4.40;99.90
14053;DHT22;7101;51.600;7.310;2023-04-15T03:08:06;4.50;99.90
14053;DHT22;7101;51.600;7.310;2023-04-15T03:10:35;4.40;99.90
14053;DHT22;7101;51.600;7.310;2023-04-15T03:13:03;4.30;99.90
14053;DHT22;7101;51.600;7.310;2023-04-15T03:15:32;4.40;99.90
14053;DHT22;7101;51.600;7.310;2023-04-15T03:17:58;4.60;99.90
14053;DHT22;7101;51.600;7.310;2023-04-15T03:20:26;4.60;99.90
14053;DHT22;7101;51.600;7.310;2023-04-15T03:22:53;4.70;99.90
14053;DHT22;7101;51.600;7.310;2023-04-15T03:25:20;4.70;99.90
14053;DHT22;7101;51.600;7.310;2023-04-15T03:27:49;4.80;99.90
14053;DHT22;7101;51.600;7.310;2023-04-15T03:30:17;4.80;99.90
14053;DHT22;7101;51.600;7.310;2023-04-15T03:32:44;4.90;99.90
14053;DHT22;7101;51.600;7.310;2023-04-15T03:35:11;5.00;99.90
14053;DHT22;7101;51.600;7.310;2023-04-15T03:37:38;5.10;99.90
14053;DHT22;7101;51.600;7.310;2023-04-15T03:40:07;5.10;99.90
14053;DHT22;7101;51.600;7.310;2023-04-15T03:42:34;5.20;99.90
14053;DHT22;7101;51.600;7.310;2023-04-15T03:45:04;5.20;99.90
14053;DHT22;7101;51.600;7.310;2023-04-15T03:47:34;5.20;99.90
14053;DHT22;7101;51.600;7.310;2023-04-15T03:50:00;5.20;99.90
14053;DHT22;7101;51.600;7.310;2023-04-15T03:52:27;5.20;99.90
14053;DHT22;7101;51.600;7.310;2023-04-15T03:54:54;5.20;99.90
14053;DHT22;7101;51.600;7.310;2023-04-15T03:57:21;5.10;99.90
14053;DHT22;7101;51.600;7.310;2023-04-15T03:59:48;5.10;99.90
14053;DHT22;7101;51.600;7.310;2023-04-15T04:02:17;5.00;99.90
14053;DHT22;7101;51.600;7.310;2023-04-15T04:04:44;4.90;99.90
14053;DHT22;7101;51.600;7.310;2023-04-15T04:07:14;4.90;99.90
14053;DHT22;7101;51.600;7.310;2023-04-15T04:09:41;4.90;99.90
14053;DHT22;7101;51.600;7.310;2023-04-15T04:12:08;4.80;99.90
14053;DHT22;7101;51.600;7.310;2023-04-15T04:14:35;4.80;99.90
14053;DHT22;7101;51.600;7.310;2023-04-15T04:17:02;4.80;99.90
14053;DHT22;7101;51.600;7.310;2023-04-15T04:19:31;4.80;99.90
14053;DHT22;7101;51.600;7.310;2023-04-15T04:21:58;4.90;99.90
14053;DHT22;7101;51.600;7.310;2023-04-15T04:24:27;4.90;99.90
14053;DHT22;7101;51.600;7.310;2023-04-15T04:26:53;4.80;99.90
14053;DHT22;7101;51.600;7.310;2023-04-15T04:29:21;4.80;99.90
14053;DHT22;7101;51.600;7.310;2023-04-15T04:31:49;4.80;99.90
14053;DHT22;7101;51.600;7.310;2023-04-15T04:34:17;4.80;99.90
14053;DHT22;7101;51.600;7.310;2023-04-15T04:36:46;4.70;99.90
14053;DHT22;7101;51.600;7.310;2023-04-15T04:39:15;4.70;99.90
14053;DHT22;7101;51.600;7.310;2023-04-15T04:41:41;4.70;99.90
14053;DHT22;7101;51.600;7.310;2023-04-15T04:44:09;4.70;99.90
14053;DHT22;7101;51.600;7.310;2023-04-15T04:46:37;4.60;99.90
14053;DHT22;7101;51.600;7.310;2023-04-15T04:49:06;4.60;99.90
14053;DHT22;7101;51.600;7.310;2023-04-15T04:51:35;4.60;99.90
14053;DHT22;7101;51.600;7.310;2023-04-15T04:54:04;4.50;99.90
14053;DHT22;7101;51.600;7.310;2023-04-15T04:56:31;4.50;99.90
14053;DHT22;7101;51.600;7.310;2023-04-15T04:58:59;4.50;99.90
14053;DHT22;7101;51.600;7.310;2023-04-15T05:01:26;4.60;99.90
14053;DHT22;7101;51.600;7.310;2023-04-15T05:03:54;4.60;99.90
14053;DHT22;7101;51.600;7.310;2023-04-15T05:06:21;4.50;99.90
14053;DHT22;7101;51.600;7.310;2023-04-15T05:08:48;4.60;99.90
14053;DHT22;7101;51.600;7.310;2023-04-15T05:11:16;4.50;99.90
14053;DHT22;7101;51.600;7.310;2023-04-15T05:13:43;4.50;99.90
14053;DHT22;7101;51.600;7.310;2023-04-15T05:16:12;4.60;99.90
14053;DHT22;7101;51.600;7.310;2023-04-15T05:18:40;4.60;99.90
14053;DHT22;7101;51.600;7.310;2023-04-15T05:21:12;4.60;99.90
14053;DHT22;7101;51.600;7.310;2023-04-15T05:23:40;4.70;99.90
14053;DHT22;7101;51.600;7.310;2023-04-15T05:26:07;4.80;99.90
14053;DHT22;7101;51.600;7.310;2023-04-15T05:28:37;5.00;99.90
14053;DHT22;7101;51.600;7.310;2023-04-15T05:31:04;5.20;99.90
14053;DHT22;7101;51.600;7.310;2023-04-15T05:33:35;5.30;99.90
14053;DHT22;7101;51.600;7.310;2023-04-15T05:36:02;5.40;99.90
14053;DHT22;7101;51.600;7.310;2023-04-15T05:38:29;5.40;99.90
14053;DHT22;7101;51.600;7.310;2023-04-15T05:40:56;5.60;99.90
14053;DHT22;7101;51.600;7.310;2023-04-15T05:43:24;5.60;99.90
14053;DHT22;7101;51.600;7.310;2023-04-15T05:45:52;5.70;99.90
14053;DHT22;7101;51.600;7.310;2023-04-15T05:48:21;5.90;99.90
14053;DHT22;7101;51.600;7.310;2023-04-15T05:50:53;6.00;99.90
14053;DHT22;7101;51.600;7.310;2023-04-15T05:53:23;6.10;99.90
14053;DHT22;7101;51.600;7.310;2023-04-15T05:55:52;6.20;99.90
14053;DHT22;7101;51.600;7.310;2023-04-15T05:58:19;6.50;99.90
14053;DHT22;7101;51.600;7.310;2023-04-15T06:00:46;6.40;99.90
14053;DHT22;7101;51.600;7.310;2023-04-15T06:03:14;6.60;99.90
14053;DHT22;7101;51.600;7.310;2023-04-15T06:05:43;6.70;99.90
14053;DHT22;7101;51.600;7.310;2023-04-15T06:08:10;6.70;99.90
14053;DHT22;7101;51.600;7.310;2023-04-15T06:10:37;7.00;99.90
14053;DHT22;7101;51.600;7.310;2023-04-15T06:13:04;7.10;99.90
14053;DHT22;7101;51.600;7.310;2023-04-15T06:15:32;7.10;99.90
14053;DHT22;7101;51.600;7.310;2023-04-15T06:18:01;7.20;99.90
14053;DHT22;7101;51.600;7.310;2023-04-15T06:20:32;7.40;99.90
14053;DHT22;7101;51.600;7.310;2023-04-15T06:23:09;7.40;99.90
14053;DHT22;7101;51.600;7.310;2023-04-15T06:25:35;7.50;99.90
14053;DHT22;7101;51.600;7.310;2023-04-15T06:28:03;7.30;99.90
14053;DHT22;7101;51.600;7.310;2023-04-15T06:30:32;7.60;99.90
14053;DHT22;7101;51.600;7.310;2023-04-15T06:33:00;7.50;99.90
14053;DHT22;7101;51.600;7.310;2023-04-15T06:35:32;7.50;99.90
14053;DHT22;7101;51.600;7.310;2023-04-15T06:38:01;7.70;99.90
14053;DHT22;7101;51.600;7.310;2023-04-15T06:40:28;7.80;99.90
14053;DHT22;7101;51.600;7.310;2023-04-15T06:42:55;8.00;99.90
14053;DHT22;7101;51.600;7.310;2023-04-15T06:45:22;8.10;99.90
14053;DHT22;7101;51.600;7.310;2023-04-15T06:47:50;8.20;99.90
14053;DHT22;7101;51.600;7.310;2023-04-15T06:50:17;8.20;99.90
14053;DHT22;7101;51.600;7.310;2023-04-15T06:52:47;8.40;99.90
14053;DHT22;7101;51.600;7.310;2023-04-15T06:55:20;8.20;99.90
14053;DHT22;7101;51.600;7.310;2023-04-15T06:57:50;8.20;99.90
14053;DHT22;7101;51.600;7.310;2023-04-15T07:00:18;8.20;99.90
14053;DHT22;7101;51.600;7.310;2023-04-15T07:02:45;8.30;99.90
14053;DHT22;7101;51.600;7.310;2023-04-15T07:05:16;8.30;99.90
14053;DHT22;7101;51.600;7.310;2023-04-15T07:07:43;8.30;99.90
14053;DHT22;7101;51.600;7.310;2023-04-15T07:10:13;8.20;99.90
14053;DHT22;7101;51.600;7.310;2023-04-15T07:12:47;8.20;99.90
14053;DHT22;7101;51.600;7.310;2023-04-15T07:15:16;8.30;99.90
14053;DHT22;7101;51.600;7.310;2023-04-15T07:17:43;8.40;99.90
14053;DHT22;7101;51.600;7.310;2023-04-15T07:20:11;8.60;99.90
14053;DHT22;7101;51.600;7.310;2023-04-15T07:22:40;8.70;99.90
14053;DHT22;7101;51.600;7.310;2023-04-15T07:25:08;8.70;99.90
14053;DHT22;7101;51.600;7.310;2023-04-15T07:27:37;8.70;99.90
14053;DHT22;7101;51.600;7.310;2023-04-15T07:30:11;8.70;99.90
14053;DHT22;7101;51.600;7.310;2023-04-15T07:32:38;8.80;99.90
14053;DHT22;7101;51.600;7.310;2023-04-15T07:35:06;9.10;99.90
14053;DHT22;7101;51.600;7.310;2023-04-15T07:37:34;9.10;99.90
14053;DHT22;7101;51.600;7.310;2023-04-15T07:40:03;9.30;99.90
14053;DHT22;7101;51.600;7.310;2023-04-15T07:42:32;9.40;99.90
14053;DHT22;7101;51.600;7.310;2023-04-15T07:45:14;9.50;99.90
14053;DHT22;7101;51.600;7.310;2023-04-15T07:47:42;9.50;99.90
14053;DHT22;7101;51.600;7.310;2023-04-15T07:50:09;9.60;99.90
14053;DHT22;7101;51.600;7.310;2023-04-15T07:52:42;9.70;99.90
14053;DHT22;7101;51.600;7.310;2023-04-15T07:55:11;9.80;99.90
14053;DHT22;7101;51.600;7.310;2023-04-15T07:57:40;9.90;99.90
14053;DHT22;7101;51.600;7.310;2023-04-15T08:00:09;10.00;99.90
14053;DHT22;7101;51.600;7.310;2023-04-15T08:02:38;10.00;99.90
14053;DHT22;7101;51.600;7.310;2023-04-15T08:05:06;10.00;99.90
14053;DHT22;7101;51.600;7.310;2023-04-15T08:07:39;10.10;99.90
14053;DHT22;7101;51.600;7.310;2023-04-15T08:10:07;10.40;99.90
14053;DHT22;7101;51.600;7.310;2023-04-15T08:12:51;10.30;99.90
14053;DHT22;7101;51.600;7.310;2023-04-15T08:15:19;10.20;99.90
14053;DHT22;7101;51.600;7.310;2023-04-15T08:17:50;10.20;99.90
14053;DHT22;7101;51.600;7.310;2023-04-15T08:20:17;10.40;99.90
14053;DHT22;7101;51.600;7.310;2023-04-15T08:22:44;10.40;99.90
14053;DHT22;7101;51.600;7.310;2023-04-15T08:25:17;10.20;99.90
14053;DHT22;7101;51.600;7.310;2023-04-15T08:27:50;10.30;99.90
14053;DHT22;7101;51.600;7.310;2023-04-15T08:30:17;10.20;99.90
14053;DHT22;7101;51.600;7.310;2023-04-15T08:32:46;10.50;99.90
14053;DHT22;7101;51.600;7.310;2023-04-15T08:35:14;10.70;99.90
14053;DHT22;7101;51.600;7.310;2023-04-15T08:37:42;10.60;99.90
14053;DHT22;7101;51.600;7.310;2023-04-15T08:40:10;10.60;99.90
14053;DHT22;7101;51.600;7.310;2023-04-15T08:42:47;10.80;99.90
14053;DHT22;7101;51.600;7.310;2023-04-15T08:45:16;10.70;99.90
14053;DHT22;7101;51.600;7.310;2023-04-15T08:47:51;10.60;99.90
14053;DHT22;7101;51.600;7.310;2023-04-15T08:50:24;10.50;99.90
14053;DHT22;7101;51.600;7.310;2023-04-15T08:52:53;10.50;99.90
14053;DHT22;7101;51.600;7.310;2023-04-15T08:55:21;10.20;99.90
14053;DHT22;7101;51.600;7.310;2023-04-15T08:57:50;10.10;99.90
14053;DHT22;7101;51.600;7.310;2023-04-15T09:00:19;10.10;99.90
14053;DHT22;7101;51.600;7.310;2023-04-15T09:02:47;10.00;99.90
14053;DHT22;7101;51.600;7.310;2023-04-15T09:05:15;9.90;99.90
14053;DHT22;7101;51.600;7.310;2023-04-15T09:07:43;9.70;99.90
14053;DHT22;7101;51.600;7.310;2023-04-15T09:10:10;9.50;99.90
14053;DHT22;7101;51.600;7.310;2023-04-15T09:12:38;9.50;99.90
14053;DHT22;7101;51.600;7.310;2023-04-15T09:15:11;9.60;99.90
14053;DHT22;7101;51.600;7.310;2023-04-15T09:17:41;9.60;99.90
14053;DHT22;7101;51.600;7.310;2023-04-15T09:20:11;9.50;99.90
14053;DHT22;7101;51.600;7.310;2023-04-15T09:22:41;9.70;99.90
14053;DHT22;7101;51.600;7.310;2023-04-15T09:25:29;9.60;99.90
14053;DHT22;7101;51.600;7.310;2023-04-15T09:27:58;9.60;99.90
14053;DHT22;7101;51.600;7.310;2023-04-15T09:30:27;9.60;99.90
14053;DHT22;7101;51.600;7.310;2023-04-15T09:32:56;9.60;99.90
14053;DHT22;7101;51.600;7.310;2023-04-15T09:35:25;9.70;99.90
14053;DHT22;7101;51.600;7.310;2023-04-15T09:37:53;9.60;99.90
14053;DHT22;7101;51.600;7.310;2023-04-15T09:40:35;9.60;99.90
14053;DHT22;7101;51.600;7.310;2023-04-15T09:43:04;9.60;99.90
14053;DHT22;7101;51.600;7.310;2023-04-15T09:45:33;9.70;99.90
14053;DHT22;7101;51.600;7.310;2023-04-15T09:48:15;9.60;99.90
14053;DHT22;7101;51.600;7.310;2023-04-15T09:50:45;9.70;99.90
14053;DHT22;7101;51.600;7.310;2023-04-15T09:53:16;9.80;99.90
14053;DHT22;7101;51.600;7.310;2023-04-15T09:55:55;9.90;99.90
14053;DHT22;7101;51.600;7.310;2023-04-15T09:58:26;9.90;99.90
14053;DHT22;7101;51.600;7.310;2023-04-15T10:00:55;9.90;99.90
14053;DHT22;7101;51.600;7.310;2023-04-15T10:03:23;9.90;99.90
14053;DHT22;7101;51.600;7.310;2023-04-15T10:05:58;9.80;99.90
14053;DHT22;7101;51.600;7.310;2023-04-15T10:08:28;10.00;99.90
14053;DHT22;7101;51.600;7.310;2023-04-15T10:10:57;10.10;99.90
14053;DHT22;7101;51.600;7.310;2023-04-15T10:13:28;10.30;99.90
14053;DHT22;7101;51.600;7.310;2023-04-15T10:16:05;10.40;99.90
14053;DHT22;7101;51.600;7.310;2023-04-15T10:18:37;10.30;99.90
14053;DHT22;7101;51.600;7.310;2023-04-15T10:21:08;10.30;99.90
14053;DHT22;7101;51.600;7.310;2023-04-15T10:23:35;10.30;99.90
14053;DHT22;7101;51.600;7.310;2023-04-15T10:26:06;10.20;99.90
14053;DHT22;7101;51.600;7.310;2023-04-15T10:28:33;10.20;99.90
14053;DHT22;7101;51.600;7.310;2023-04-15T10:31:01;10.20;99.90
14053;DHT22;7101;51.600;7.310;2023-04-15T10:33:28;10.20;99.90
14053;DHT22;7101;51.600;7.310;2023-04-15T10:35:56;10.30;99.90
14053;DHT22;7101;51.600;7.310;2023-04-15T10:38:34;10.40;99.90
14053;DHT22;7101;51.600;7.310;2023-04-15T10:41:14;10.20;99.90
14053;DHT22;7101;51.600;7.310;2023-04-15T10:43:54;9.90;99.90
14053;DHT22;7101;51.600;7.310;2023-04-15T10:46:23;10.10;99.90
14053;DHT22;7101;51.600;7.310;2023-04-15T10:49:06;10.10;99.90
14053;DHT22;7101;51.600;7.310;2023-04-15T10:51:38;10.10;99.90
14053;DHT22;7101;51.600;7.310;2023-04-15T10:54:14;10.00;99.90
14053;DHT22;7101;51.600;7.310;2023-04-15T10:56:45;10.00;99.90
14053;DHT22;7101;51.600;7.310;2023-04-15T10:59:16;10.00;99.90
14053;DHT22;7101;51.600;7.310;2023-04-15T11:01:50;10.10;99.90
14053;DHT22;7101;51.600;7.310;2023-04-15T11:04:51;10.10;99.90
14053;DHT22;7101;51.600;7.310;2023-04-15T11:13:31;10.00;99.90
14053;DHT22;7101;51.600;7.310;2023-04-15T11:16:02;9.90;99.90
14053;DHT22;7101;51.600;7.310;2023-04-15T11:18:31;9.90;99.90
14053;DHT22;7101;51.600;7.310;2023-04-15T11:21:01;9.90;99.90
14053;DHT22;7101;51.600;7.310;2023-04-15T11:23:37;9.90;99.90
14053;DHT22;7101;51.600;7.310;2023-04-15T11:26:06;9.90;99.90
14053;DHT22;7101;51.600;7.310;2023-04-15T11:28:43;9.90;99.90
14053;DHT22;7101;51.600;7.310;2023-04-15T11:31:14;9.80;99.90
14053;DHT22;7101;51.600;7.310;2023-04-15T11:33:54;9.90;99.90
14053;DHT22;7101;51.600;7.310;2023-04-15T11:36:23;10.00;99.90
14053;DHT22;7101;51.600;7.310;2023-04-15T11:38:53;10.00;99.90
14053;DHT22;7101;51.600;7.310;2023-04-15T11:41:34;10.10;99.90
14053;DHT22;7101;51.600;7.310;2023-04-15T11:44:15;10.20;99.90
14053;DHT22;7101;51.600;7.310;2023-04-15T11:46:42;10.30;99.90
14053;DHT22;7101;51.600;7.310;2023-04-15T11:49:09;10.40;99.90
14053;DHT22;7101;51.600;7.310;2023-04-15T11:51:42;10.40;99.90
14053;DHT22;7101;51.600;7.310;2023-04-15T11:54:18;10.40;99.90
14053;DHT22;7101;51.600;7.310;2023-04-15T11:56:50;10.50;99.90
14053;DHT22;7101;51.600;7.310;2023-04-15T11:59:20;10.50;99.90
14053;DHT22;7101;51.600;7.310;2023-04-15T12:01:47;10.40;99.90
14053;DHT22;7101;51.600;7.310;2023-04-15T12:04:17;10.40;99.90
14053;DHT22;7101;51.600;7.310;2023-04-15T12:06:47;10.50;99.90
14053;DHT22;7101;51.600;7.310;2023-04-15T12:09:25;10.50;99.90
14053;DHT22;7101;51.600;7.310;2023-04-15T12:11:59;10.60;99.90
14053;DHT22;7101;51.600;7.310;2023-04-15T12:14:38;10.70;99.90
14053;DHT22;7101;51.600;7.310;2023-04-15T12:17:09;10.50;99.90
14053;DHT22;7101;51.600;7.310;2023-04-15T12:19:45;10.50;99.90
14053;DHT22;7101;51.600;7.310;2023-04-15T12:22:17;10.30;99.90
14053;DHT22;7101;51.600;7.310;2023-04-15T12:24:59;10.20;99.90
14053;DHT22;7101;51.600;7.310;2023-04-15T12:27:27;10.10;99.90
14053;DHT22;7101;51.600;7.310;2023-04-15T12:30:06;10.10;99.90
14053;DHT22;7101;51.600;7.310;2023-04-15T12:32:34;10.30;99.90
14053;DHT22;7101;51.600;7.310;2023-04-15T12:35:10;10.30;99.90
14053;DHT22;7101;51.600;7.310;2023-04-15T12:37:39;10.30;99.90
14053;DHT22;7101;51.600;7.310;2023-04-15T12:40:08;10.20;99.90
14053;DHT22;7101;51.600;7.310;2023-04-15T12:42:38;10.10;99.90
14053;DHT22;7101;51.600;7.310;2023-04-15T12:45:10;10.30;99.90
14053;DHT22;7101;51.600;7.310;2023-04-15T12:47:37;10.40;99.90
14053;DHT22;7101;51.600;7.310;2023-04-15T12:50:05;10.60;99.90
14053;DHT22;7101;51.600;7.310;2023-04-15T12:52:33;10.60;99.90
14053;DHT22;7101;51.600;7.310;2023-04-15T12:54:59;10.70;99.90
14053;DHT22;7101;51.600;7.310;2023-04-15T12:57:29;10.70;99.90
14053;DHT22;7101;51.600;7.310;2023-04-15T13:00:01;10.60;99.90
14053;DHT22;7101;51.600;7.310;2023-04-15T13:02:32;10.60;99.90
14053;DHT22;7101;51.600;7.310;2023-04-15T13:05:01;10.80;99.90
14053;DHT22;7101;51.600;7.310;2023-04-15T13:07:40;10.80;99.90
14053;DHT22;7101;51.600;7.310;2023-04-15T13:10:13;10.80;99.90
14053;DHT22;7101;51.600;7.310;2023-04-15T13:12:50;10.80;99.90
14053;DHT22;7101;51.600;7.310;2023-04-15T13:15:29;10.70;99.90
14053;DHT22;7101;51.600;7.310;2023-04-15T13:17:59;10.40;99.90
14053;DHT22;7101;51.600;7.310;2023-04-15T13:20:35;10.20;99.90
14053;DHT22;7101;51.600;7.310;2023-04-15T13:23:02;10.10;99.90
14053;DHT22;7101;51.600;7.310;2023-04-15T13:25:29;10.10;99.90
14053;DHT22;7101;51.600;7.310;2023-04-15T13:27:56;10.10;99.90
14053;DHT22;7101;51.600;7.310;2023-04-15T13:30:24;10.30;99.90
14053;DHT22;7101;51.600;7.310;2023-04-15T13:32:52;10.30;99.90
14053;DHT22;7101;51.600;7.310;2023-04-15T13:35:24;10.20;99.90
14053;DHT22;7101;51.600;7.310;2023-04-15T13:37:53;10.10;99.90
14053;DHT22;7101;51.600;7.310;2023-04-15T13:40:27;10.10;99.90
14053;DHT22;7101;51.600;7.310;2023-04-15T13:42:55;10.10;99.90
14053;DHT22;7101;51.600;7.310;2023-04-15T13:45:24;10.30;99.90
14053;DHT22;7101;51.600;7.310;2023-04-15T13:47:52;10.30;99.90
14053;DHT22;7101;51.600;7.310;2023-04-15T13:50:20;10.10;99.90
14053;DHT22;7101;51.600;7.310;2023-04-15T13:52:49;10.10;99.90
14053;DHT22;7101;51.600;7.310;2023-04-15T13:55:23;10.20;99.90
14053;DHT22;7101;51.600;7.310;2023-04-15T13:57:51;10.10;99.90
14053;DHT22;7101;51.600;7.310;2023-04-15T14:00:22;10.10;99.90
14053;DHT22;7101;51.600;7.310;2023-04-15T14:02:57;10.00;99.90
14053;DHT22;7101;51.600;7.310;2023-04-15T14:05:26;9.80;99.90
14053;DHT22;7101;51.600;7.310;2023-04-15T14:07:53;9.60;99.90
14053;DHT22;7101;51.600;7.310;2023-04-15T14:10:21;9.60;99.90
14053;DHT22;7101;51.600;7.310;2023-04-15T14:12:49;9.70;99.90
14053;DHT22;7101;51.600;7.310;2023-04-15T14:15:22;9.80;99.90
14053;DHT22;7101;51.600;7.310;2023-04-15T14:17:52;9.70;99.90
14053;DHT22;7101;51.600;7.310;2023-04-15T14:20:30;9.90;99.90
14053;DHT22;7101;51.600;7.310;2023-04-15T14:22:58;9.80;99.90
14053;DHT22;7101;51.600;7.310;2023-04-15T14:25:35;9.90;99.90
14053;DHT22;7101;51.600;7.310;2023-04-15T14:28:04;9.90;99.90
14053;DHT22;7101;51.600;7.310;2023-04-15T14:30:40;9.90;99.90
14053;DHT22;7101;51.600;7.310;2023-04-15T14:33:08;9.70;99.90
14053;DHT22;7101;51.600;7.310;2023-04-15T14:35:37;9.60;99.90
14053;DHT22;7101;51.600;7.310;2023-04-15T14:38:07;9.50;99.90
14053;DHT22;7101;51.600;7.310;2023-04-15T14:40:36;9.50;99.90
14053;DHT22;7101;51.600;7.310;2023-04-15T14:43:03;9.50;99.90
14053;DHT22;7101;51.600;7.310;2023-04-15T14:45:31;9.50;99.90
14053;DHT22;7101;51.600;7.310;2023-04-15T14:48:00;9.50;99.90
14053;DHT22;7101;51.600;7.310;2023-04-15T14:50:27;9.60;99.90
14053;DHT22;7101;51.600;7.310;2023-04-15T14:53:01;9.60;99.90
14053;DHT22;7101;51.600;7.310;2023-04-15T14:55:40;9.60;99.90
14053;DHT22;7101;51.600;7.310;2023-04-15T14:58:07;9.40;99.90
14053;DHT22;7101;51.600;7.310;2023-04-15T15:00:35;9.40;99.90
14053;DHT22;7101;51.600;7.310;2023-04-15T15:03:10;9.60;99.90
14053;DHT22;7101;51.600;7.310;2023-04-15T15:05:43;9.60;99.90
14053;DHT22;7101;51.600;7.310;2023-04-15T15:08:13;9.60;99.90
14053;DHT22;7101;51.600;7.310;2023-04-15T15:10:40;9.60;99.90
14053;DHT22;7101;51.600;7.310;2023-04-15T15:13:10;9.60;99.90
14053;DHT22;7101;51.600;7.310;2023-04-15T15:15:38;9.60;99.90
14053;DHT22;7101;51.600;7.310;2023-04-15T15:18:06;9.50;99.90
14053;DHT22;7101;51.600;7.310;2023-04-15T15:20:34;9.40;99.90
14053;DHT22;7101;51.600;7.310;2023-04-15T15:23:08;9.40;99.90
14053;DHT22;7101;51.600;7.310;2023-04-15T15:25:37;9.50;99.90
14053;DHT22;7101;51.600;7.310;2023-04-15T15:28:06;9.60;99.90
14053;DHT22;7101;51.600;7.310;2023-04-15T15:30:33;9.70;99.90
14053;DHT22;7101;51.600;7.310;2023-04-15T15:33:01;9.60;99.90
14053;DHT22;7101;51.600;7.310;2023-04-15T15:35:29;9.50;99.90
14053;DHT22;7101;51.600;7.310;2023-04-15T15:37:58;9.30;99.90
14053;DHT22;7101;51.600;7.310;2023-04-15T15:40:30;9.20;99.90
14053;DHT22;7101;51.600;7.310;2023-04-15T15:43:00;9.20;99.90
14053;DHT22;7101;51.600;7.310;2023-04-15T15:45:34;9.10;99.90
14053;DHT22;7101;51.600;7.310;2023-04-15T15:48:03;9.00;99.90
14053;DHT22;7101;51.600;7.310;2023-04-15T15:50:30;8.90;99.90
14053;DHT22;7101;51.600;7.310;2023-04-15T15:52:59;8.90;99.90
14053;DHT22;7101;51.600;7.310;2023-04-15T15:55:27;8.90;99.90
14053;DHT22;7101;51.600;7.310;2023-04-15T15:57:54;8.90;99.90
14053;DHT22;7101;51.600;7.310;2023-04-15T16:00:22;8.80;99.90
14053;DHT22;7101;51.600;7.310;2023-04-15T16:02:54;8.80;99.90
14053;DHT22;7101;51.600;7.310;2023-04-15T16:05:28;8.90;99.90
14053;DHT22;7101;51.600;7.310;2023-04-15T16:07:56;8.90;99.90
14053;DHT22;7101;51.600;7.310;2023-04-15T16:10:23;8.90;99.90
14053;DHT22;7101;51.600;7.310;2023-04-15T16:12:53;8.80;99.90
14053;DHT22;7101;51.600;7.310;2023-04-15T16:15:24;8.90;99.90
14053;DHT22;7101;51.600;7.310;2023-04-15T16:17:51;8.90;99.90